Aérodrome :
LOGIN :

S'inscrire | Disclaimer

   EN    FR    IT 

 










Légende :    VFR   VFR Marginal   IFR   IFR Intensif   IFR Très Intensif
Visi : 
Plafond : 
>= 8 km
>= 3000ft
5 à 8 km
1000 à 3000 ft
1500m à 5 km
500 à 1000 ft
800 à 1500m
200 à 500 ft
< 800m
< 200 ft
Symboles :   Orages  Brouillard  Fortes neiges  Fortes précipitations  Vent > 20 kt
SIGMETs :   Divers  Orages  Givrage  Turbulence  Onde Orograph.  Cendres Volcan.







- Altitude de l'aérodrome : 75 ft
- Code IATA : YEO


EGDY - RNAS Yeovilton

DERNIER METAR :
  • 210950Z 26016KT 9999 FEW020CB SCT050 14/07 Q1010 BLU TEMPO 6000 SHRA SCT024CB WHT

METARs EXPIRÉS :
  • 210850Z 25013KT 9999 FEW020CB FEW021TCU 13/07 Q1010 BLU TEMPO 6000 SHRA SCT024CB WHT
  • 210750Z 25010KT 9999 FEW020CB FEW021TCU 12/07 Q1009 BLU TEMPO 6000 SHRA SCT024CB WHT
  • 210650Z 25009KT 9999 FEW020CB SCT030 10/07 Q1008 BLU NOSIG

TAF TAF EGDY
Valide du 21 à 09h jusqu'au 21 à 18h UTC


210745Z 2109/2118 27015G25KT 9999 SCT030
PROB30
TEMPO 2109/2118 6000 SHRA FEW012 BKN024CB
BECMG 2111/2113 27015G35KT BKN030
Pas de NOTAMs connus pour ce terrain.
1 SIGMET publié pour la FIR London (EGTT) :
 
Turbulence forte
EGTT SIGMET 04 VALID 210900/211200 EGRR
EGTT LONDON FIR SEV TURB FCST NE OF LINE N5500 W00211 - N5240 E00256 SFC/FL060 MOV NE 15KT NC=



MET'MAP, la Météo Aéronautique d'un coup d'oeil ! - Copyright ORBIFLY Décembre 2007 - Disclaimer

ORBIFLY MET'MAP TEAM :

Programmation & Développement : Alexandra Zaïnal
Conception & Développement : Baudouin d'Aumeries
Co-Programmation & Développement : Marc-Olivier Méhu
Soutien technique & logistique : Manuel Goepfert

Contact : metmap@orbifly.com




SOURCES & CREDITS :

   NOAA